createdAt,value
2019-04-03T00:00:59.172Z,0
2019-04-03T00:01:59.843Z,0
2019-04-03T00:03:00.344Z,0
2019-04-03T00:04:01.046Z,0
2019-04-03T00:05:02.775Z,0
2019-04-03T00:06:02.125Z,0
2019-04-03T00:07:03.876Z,0
2019-04-03T00:08:06.077Z,0
2019-04-03T00:09:06.591Z,0
2019-04-03T00:10:06.649Z,0
2019-04-03T00:11:09.432Z,0
2019-04-03T00:12:08.671Z,0
2019-04-03T00:13:11.130Z,0
2019-04-03T00:14:12.416Z,0
2019-04-03T00:15:13.683Z,0
2019-04-03T00:16:15.692Z,0
2019-04-03T00:17:15.934Z,0
2019-04-03T00:18:16.739Z,0
2019-04-03T00:19:17.709Z,0
2019-04-03T00:20:18.427Z,0
2019-04-03T00:21:19.806Z,0
2019-04-03T00:22:22.020Z,0
2019-04-03T00:23:22.875Z,0
2019-04-03T00:24:23.412Z,0
2019-04-03T00:25:23.966Z,0
2019-04-03T00:26:24.535Z,0
2019-04-03T00:27:25.104Z,0
2019-04-03T00:28:25.676Z,0
2019-04-03T00:29:26.245Z,0
2019-04-03T00:30:26.854Z,0
2019-04-03T00:31:27.395Z,0
2019-04-03T00:32:27.987Z,0
2019-04-03T00:33:28.543Z,0
2019-04-03T00:34:29.113Z,0
2019-04-03T00:35:29.694Z,0
2019-04-03T00:36:30.268Z,0
2019-04-03T00:37:30.831Z,0
2019-04-03T00:38:31.416Z,0
2019-04-03T00:39:31.997Z,0
2019-04-03T00:40:32.565Z,0
2019-04-03T00:41:33.171Z,0
2019-04-03T00:42:33.722Z,0
2019-04-03T00:43:34.295Z,0
2019-04-03T00:44:34.875Z,0
2019-04-03T00:45:35.446Z,0
2019-04-03T00:46:36.095Z,0
2019-04-03T00:47:36.692Z,0
2019-04-03T00:48:37.188Z,0
2019-04-03T00:49:37.757Z,0
2019-04-03T00:50:38.325Z,0
2019-04-03T00:51:38.937Z,0
2019-04-03T00:52:39.463Z,0
2019-04-03T00:53:40.036Z,0
2019-04-03T00:54:40.659Z,0
2019-04-03T00:55:41.174Z,0
2019-04-03T00:56:41.743Z,0
2019-04-03T00:57:42.311Z,0
2019-04-03T00:58:42.881Z,0
2019-04-03T00:59:43.448Z,0
2019-04-03T01:00:44.018Z,0
2019-04-03T01:01:44.585Z,0
2019-04-03T01:02:45.153Z,0
2019-04-03T01:03:45.864Z,0
2019-04-03T01:04:46.365Z,0
2019-04-03T01:05:46.933Z,0
2019-04-03T01:06:47.503Z,0
2019-04-03T01:07:48.073Z,0
2019-04-03T01:08:48.641Z,0
2019-04-03T01:09:49.335Z,0
2019-04-03T01:10:49.826Z,0
2019-04-03T01:11:50.394Z,0
2019-04-03T01:12:50.964Z,0
2019-04-03T01:13:51.532Z,0
2019-04-03T01:14:52.101Z,0
2019-04-03T01:15:52.673Z,0
2019-04-03T01:16:53.253Z,0
2019-04-03T01:17:53.820Z,0
2019-04-03T01:18:54.389Z,0
2019-04-03T01:19:54.958Z,0
2019-04-03T01:20:55.532Z,0
2019-04-03T01:21:56.111Z,0
2019-04-03T01:22:56.678Z,0
2019-04-03T01:23:57.247Z,0
2019-04-03T01:24:57.814Z,0
2019-04-03T01:25:58.383Z,0
2019-04-03T01:26:58.951Z,0
2019-04-03T01:27:59.664Z,0
2019-04-03T01:29:00.097Z,0
2019-04-03T01:30:00.666Z,0
2019-04-03T01:31:01.234Z,0
2019-04-03T01:32:01.806Z,0
2019-04-03T01:33:02.372Z,0
2019-04-03T01:34:02.940Z,0
2019-04-03T01:35:03.662Z,0
2019-04-03T01:36:04.150Z,0
2019-04-03T01:37:04.718Z,0
2019-04-03T01:38:05.303Z,0
2019-04-03T01:39:05.921Z,0
2019-04-03T01:40:06.552Z,0
2019-04-03T01:41:07.226Z,0
2019-04-03T01:42:07.727Z,0
2019-04-03T01:43:08.296Z,0
2019-04-03T01:44:08.864Z,0
2019-04-03T01:45:09.440Z,0
2019-04-03T01:46:10.015Z,0
2019-04-03T01:47:10.589Z,0
2019-04-03T01:48:11.164Z,0
2019-04-03T01:49:11.744Z,0
2019-04-03T01:50:12.415Z,0
2019-04-03T01:51:12.915Z,0
2019-04-03T01:52:13.670Z,0
2019-04-03T01:53:14.160Z,0
2019-04-03T01:54:14.864Z,0
2019-04-03T01:55:15.455Z,0
2019-04-03T01:56:15.956Z,0
2019-04-03T01:57:16.517Z,0
2019-04-03T01:58:17.091Z,0
2019-04-03T01:59:17.665Z,0
2019-04-03T02:00:18.248Z,0
2019-04-03T02:01:18.812Z,0
2019-04-03T02:02:19.454Z,0
2019-04-03T02:03:19.962Z,0
2019-04-03T02:04:20.529Z,0
2019-04-03T02:05:21.099Z,0
2019-04-03T02:06:21.681Z,0
2019-04-03T02:07:22.253Z,0
2019-04-03T02:08:22.819Z,0
2019-04-03T02:09:23.386Z,0
2019-04-03T02:10:23.956Z,0
2019-04-03T02:11:24.524Z,0
2019-04-03T02:12:25.093Z,0
2019-04-03T02:13:25.756Z,0
2019-04-03T02:14:26.245Z,0
2019-04-03T02:15:26.813Z,0
2019-04-03T02:16:27.381Z,0
2019-04-03T02:17:27.951Z,0
2019-04-03T02:18:28.519Z,0
2019-04-03T02:19:29.218Z,0
2019-04-03T02:20:29.698Z,0
2019-04-03T02:21:30.230Z,0
2019-04-03T02:22:30.800Z,0
2019-04-03T02:23:31.368Z,0
2019-04-03T02:24:32.194Z,0
2019-04-03T02:25:32.694Z,0
2019-04-03T02:26:33.274Z,0
2019-04-03T02:27:33.891Z,0
2019-04-03T02:28:35.203Z,0
2019-04-03T02:29:35.864Z,0
2019-04-03T02:30:36.361Z,0
2019-04-03T02:31:36.917Z,0
2019-04-03T02:32:37.499Z,0
2019-04-03T02:33:38.452Z,0
2019-04-03T02:34:39.020Z,0
2019-04-03T02:35:40.493Z,0
2019-04-03T02:36:43.988Z,0
2019-04-03T02:37:41.735Z,0
2019-04-03T02:38:42.310Z,0
2019-04-03T02:39:42.888Z,0
2019-04-03T02:40:43.461Z,0
2019-04-03T02:41:44.130Z,0
2019-04-03T02:42:44.634Z,0
2019-04-03T02:43:46.315Z,0
2019-04-03T02:44:48.341Z,0
2019-04-03T02:45:48.389Z,0
2019-04-03T02:46:48.912Z,0
2019-04-03T02:47:49.795Z,0
2019-04-03T02:48:50.350Z,0
2019-04-03T02:49:50.916Z,0
2019-04-03T02:50:51.652Z,0
2019-04-03T02:51:53.350Z,0
2019-04-03T02:52:56.893Z,0
2019-04-03T02:53:55.342Z,0
2019-04-03T02:54:55.972Z,0
2019-04-03T02:55:56.480Z,0
2019-04-03T02:56:57.115Z,0
2019-04-03T02:57:57.636Z,0
2019-04-03T02:58:58.205Z,0
2019-04-03T03:00:00.106Z,0
2019-04-03T03:01:00.403Z,0
2019-04-03T03:02:00.914Z,0
2019-04-03T03:03:01.530Z,0
2019-04-03T03:04:02.066Z,0
2019-04-03T03:05:02.635Z,0
2019-04-03T03:06:03.203Z,0
2019-04-03T03:07:05.054Z,0
2019-04-03T03:08:08.012Z,0
2019-04-03T03:09:06.894Z,0
2019-04-03T03:10:07.476Z,0
2019-04-03T03:11:08.030Z,0
2019-04-03T03:12:08.932Z,0
2019-04-03T03:13:09.445Z,0
2019-04-03T03:14:10.013Z,0
2019-04-03T03:15:12.014Z,0
2019-04-03T03:16:11.152Z,0
2019-04-03T03:17:11.718Z,0
2019-04-03T03:18:12.584Z,0
2019-04-03T03:19:13.122Z,0
2019-04-03T03:20:13.689Z,0
2019-04-03T03:21:14.434Z,0
2019-04-03T03:22:18.070Z,0
2019-04-03T03:23:16.500Z,0
2019-04-03T03:24:17.074Z,0
2019-04-03T03:25:17.638Z,0
2019-04-03T03:26:18.527Z,0
2019-04-03T03:27:18.797Z,0
2019-04-03T03:28:19.429Z,0
2019-04-03T03:29:25.677Z,0
2019-04-03T03:30:38.827Z,0
2019-04-03T03:31:57.673Z,0
2019-04-03T03:32:30.638Z,0
2019-04-03T03:33:34.801Z,0
2019-04-03T03:34:47.750Z,0
2019-04-03T03:35:31.504Z,0
2019-04-03T03:36:29.387Z,0
2019-04-03T03:37:33.132Z,0
2019-04-03T03:38:31.596Z,0
2019-04-03T03:39:32.167Z,0
2019-04-03T03:40:32.705Z,0
2019-04-03T03:41:33.276Z,0
2019-04-03T03:42:33.950Z,0
2019-04-03T03:43:37.552Z,0
2019-04-03T03:44:36.068Z,0
2019-04-03T03:45:37.066Z,0
2019-04-03T03:46:37.620Z,0
2019-04-03T03:47:38.191Z,0
2019-04-03T03:48:42.581Z,0
2019-04-03T03:49:40.320Z,0
2019-04-03T03:50:41.269Z,0
2019-04-03T03:51:41.797Z,0
2019-04-03T03:52:42.386Z,0
2019-04-03T03:53:44.785Z,0
2019-04-03T03:54:44.499Z,0
2019-04-03T03:55:45.069Z,0
2019-04-03T03:56:45.821Z,0
2019-04-03T03:57:46.323Z,0
2019-04-03T03:58:46.913Z,0
2019-04-03T03:59:50.447Z,0
2019-04-03T04:00:52.220Z,0
2019-04-03T04:01:49.685Z,0
2019-04-03T04:02:50.170Z,0
2019-04-03T04:03:50.740Z,0
2019-04-03T04:04:51.307Z,0
2019-04-03T04:05:55.382Z,0
2019-04-03T04:06:53.435Z,0
2019-04-03T04:07:54.003Z,0
2019-04-03T04:08:54.671Z,0
2019-04-03T04:09:55.271Z,0
2019-04-03T04:10:59.473Z,0
2019-04-03T04:11:57.643Z,0
2019-04-03T04:12:57.916Z,0
2019-04-03T04:13:58.486Z,0
2019-04-03T04:14:59.119Z,0
2019-04-03T04:16:02.214Z,0
2019-04-03T04:17:01.595Z,0
2019-04-03T04:18:02.127Z,0
2019-04-03T04:19:02.706Z,0
2019-04-03T04:20:05.607Z,0
2019-04-03T04:21:04.827Z,0
2019-04-03T04:22:05.406Z,0
2019-04-03T04:23:06.187Z,0
2019-04-03T04:24:06.751Z,0
2019-04-03T04:25:07.521Z,0
2019-04-03T04:26:07.934Z,0
2019-04-03T04:27:08.555Z,0
2019-04-03T04:28:09.873Z,0
2019-04-03T04:29:11.433Z,0
2019-04-03T04:30:12.864Z,0
2019-04-03T04:31:13.464Z,0
2019-04-03T04:32:14.930Z,0
2019-04-03T04:33:17.231Z,0
2019-04-03T04:34:18.911Z,0
2019-04-03T04:35:20.758Z,0
2019-04-03T04:36:20.518Z,0
2019-04-03T04:37:21.797Z,0
2019-04-03T04:38:22.366Z,0
2019-04-03T04:39:22.934Z,0
2019-04-03T04:40:23.504Z,0
2019-04-03T04:41:24.069Z,0
2019-04-03T04:42:24.647Z,0
2019-04-03T04:43:25.381Z,0
2019-04-03T04:44:25.953Z,0
2019-04-03T04:45:26.448Z,0
2019-04-03T04:46:27.182Z,0
2019-04-03T04:47:27.855Z,0
2019-04-03T04:48:28.247Z,0
2019-04-03T04:49:28.862Z,0
2019-04-03T04:50:29.578Z,0
2019-04-03T04:51:30.378Z,0
2019-04-03T04:52:31.207Z,4
2019-04-03T04:53:31.710Z,4
2019-04-03T04:54:32.282Z,4
2019-04-03T04:55:34.416Z,0
2019-04-03T04:56:37.175Z,0
2019-04-03T04:57:35.000Z,4
2019-04-03T04:58:35.568Z,4
2019-04-03T04:59:36.795Z,4
2019-04-03T05:00:36.708Z,4
2019-04-03T05:01:37.275Z,0
2019-04-03T05:02:38.013Z,4
2019-04-03T05:03:38.499Z,4
2019-04-03T05:04:39.194Z,4
2019-04-03T05:05:39.707Z,8
2019-04-03T05:06:40.276Z,4
2019-04-03T05:07:40.855Z,4
2019-04-03T05:08:41.425Z,4
2019-04-03T05:09:41.993Z,8
2019-04-03T05:10:42.785Z,4
2019-04-03T05:11:43.139Z,8
2019-04-03T05:12:45.343Z,4
2019-04-03T05:13:46.800Z,8
2019-04-03T05:14:46.838Z,8
2019-04-03T05:15:47.407Z,8
2019-04-03T05:16:47.975Z,8
2019-04-03T05:17:50.528Z,8
2019-04-03T05:18:49.130Z,12
2019-04-03T05:19:49.699Z,12
2019-04-03T05:20:50.885Z,12
2019-04-03T05:21:52.872Z,12
2019-04-03T05:22:55.378Z,12
2019-04-03T05:23:56.120Z,12
2019-04-03T05:24:58.945Z,8
2019-04-03T05:26:01.003Z,12
2019-04-03T05:26:58.674Z,12
2019-04-03T05:27:59.248Z,12
2019-04-03T05:28:59.813Z,16
2019-04-03T05:30:00.431Z,16
2019-04-03T05:31:01.004Z,16
2019-04-03T05:32:01.542Z,20
2019-04-03T05:33:02.120Z,16
2019-04-03T05:34:02.681Z,20
2019-04-03T05:35:03.250Z,24
2019-04-03T05:36:03.821Z,32
2019-04-03T05:37:04.391Z,36
2019-04-03T05:38:04.972Z,40
2019-04-03T05:39:05.540Z,40
2019-04-03T05:40:06.109Z,48
2019-04-03T05:41:06.681Z,48
2019-04-03T05:42:07.250Z,52
2019-04-03T05:43:07.823Z,52
2019-04-03T05:44:08.392Z,56
2019-04-03T05:45:09.039Z,60
2019-04-03T05:46:09.535Z,60
2019-04-03T05:47:10.103Z,64
2019-04-03T05:48:13.152Z,64
2019-04-03T05:49:12.265Z,68
2019-04-03T05:50:12.816Z,68
2019-04-03T05:51:13.385Z,72
2019-04-03T05:52:13.968Z,80
2019-04-03T05:53:14.553Z,84
2019-04-03T05:54:15.302Z,88
2019-04-03T05:55:15.795Z,92
2019-04-03T05:56:16.370Z,92
2019-04-03T05:57:16.939Z,96
2019-04-03T05:58:17.505Z,92
2019-04-03T05:59:18.077Z,96
2019-04-03T06:00:18.658Z,96
2019-04-03T06:01:19.227Z,96
2019-04-03T06:02:20.998Z,100
2019-04-03T06:03:24.706Z,96
2019-04-03T06:04:22.923Z,92
2019-04-03T06:05:23.510Z,88
2019-04-03T06:06:24.067Z,92
2019-04-03T06:07:24.635Z,88
2019-04-03T06:08:25.204Z,88
2019-04-03T06:09:25.778Z,84
2019-04-03T06:10:27.930Z,84
2019-04-03T06:11:27.918Z,80
2019-04-03T06:12:28.573Z,76
2019-04-03T06:13:29.066Z,76
2019-04-03T06:14:29.634Z,76
2019-04-03T06:15:30.477Z,72
2019-04-03T06:16:31.068Z,68
2019-04-03T06:17:31.555Z,64
2019-04-03T06:18:32.502Z,64
2019-04-03T06:19:35.421Z,60
2019-04-03T06:20:34.611Z,64
2019-04-03T06:21:35.176Z,64
2019-04-03T06:22:35.745Z,64
2019-04-03T06:23:36.317Z,68
2019-04-03T06:24:36.945Z,64
2019-04-03T06:25:37.470Z,68
2019-04-03T06:26:38.515Z,72
2019-04-03T06:27:40.722Z,76
2019-04-03T06:28:42.456Z,80
2019-04-03T06:29:41.741Z,84
2019-04-03T06:30:42.643Z,84
2019-04-03T06:31:43.216Z,80
2019-04-03T06:32:43.737Z,76
2019-04-03T06:33:44.408Z,72
2019-04-03T06:34:44.919Z,72
2019-04-03T06:35:46.143Z,68
2019-04-03T06:36:49.513Z,68
2019-04-03T06:37:48.260Z,64
2019-04-03T06:38:48.848Z,64
2019-04-03T06:39:49.412Z,60
2019-04-03T06:40:50.048Z,60
2019-04-03T06:41:50.564Z,60
2019-04-03T06:42:51.132Z,60
2019-04-03T06:43:54.038Z,64
2019-04-03T06:44:54.076Z,68
2019-04-03T06:45:55.333Z,72
2019-04-03T06:46:55.011Z,72
2019-04-03T06:47:55.570Z,80
2019-04-03T06:48:56.136Z,88
2019-04-03T06:49:56.722Z,92
2019-04-03T06:50:57.289Z,92
2019-04-03T06:51:57.863Z,96
2019-04-03T06:52:58.441Z,92
2019-04-03T06:53:59.849Z,92
2019-04-03T06:55:02.665Z,84
2019-04-03T06:56:02.024Z,84
2019-04-03T06:57:02.593Z,84
2019-04-03T06:58:03.166Z,80
2019-04-03T06:59:03.981Z,80
2019-04-03T07:00:04.475Z,80
2019-04-03T07:01:05.235Z,80
2019-04-03T07:02:05.718Z,84
2019-04-03T07:03:06.316Z,88
2019-04-03T07:04:07.246Z,88
2019-04-03T07:05:09.675Z,92
2019-04-03T07:06:08.367Z,96
2019-04-03T07:07:09.180Z,96
2019-04-03T07:08:09.688Z,96
2019-04-03T07:09:21.855Z,96
2019-04-03T07:10:24.037Z,96
2019-04-03T07:11:22.800Z,96
2019-04-03T07:12:15.607Z,92
2019-04-03T07:13:15.539Z,92
2019-04-03T07:14:16.103Z,88
2019-04-03T07:15:16.685Z,88
2019-04-03T07:16:17.240Z,88
2019-04-03T07:17:17.814Z,88
2019-04-03T07:18:18.380Z,88
2019-04-03T07:19:18.950Z,88
2019-04-03T07:20:20.812Z,84
2019-04-03T07:21:22.823Z,84
2019-04-03T07:22:22.642Z,80
2019-04-03T07:23:23.213Z,76
2019-04-03T07:24:24.260Z,76
2019-04-03T07:25:24.802Z,80
2019-04-03T07:26:25.363Z,80
2019-04-03T07:27:25.933Z,84
2019-04-03T07:28:26.570Z,92
2019-04-03T07:29:27.359Z,100
2019-04-03T07:30:27.857Z,108
2019-04-03T07:31:28.513Z,112
2019-04-03T07:32:29.071Z,108
2019-04-03T07:33:29.654Z,104
2019-04-03T07:34:30.224Z,104
2019-04-03T07:35:30.798Z,112
2019-04-03T07:36:31.366Z,116
2019-04-03T07:37:31.947Z,124
2019-04-03T07:38:32.518Z,120
2019-04-03T07:39:33.088Z,124
2019-04-03T07:40:33.662Z,128
2019-04-03T07:41:34.226Z,132
2019-04-03T07:42:34.800Z,132
2019-04-03T07:43:35.368Z,124
2019-04-03T07:44:35.940Z,112
2019-04-03T07:45:36.510Z,96
2019-04-03T07:46:37.083Z,84
2019-04-03T07:47:37.742Z,72
2019-04-03T07:48:38.615Z,68
2019-04-03T07:49:40.059Z,64
2019-04-03T07:50:41.591Z,68
2019-04-03T07:51:41.573Z,72
2019-04-03T07:52:42.817Z,76
2019-04-03T07:53:43.390Z,80
2019-04-03T07:54:43.957Z,88
2019-04-03T07:55:44.532Z,96
2019-04-03T07:56:45.346Z,108
2019-04-03T07:57:45.689Z,124
2019-04-03T07:58:46.265Z,132
2019-04-03T07:59:46.828Z,148
2019-04-03T08:00:47.399Z,148
2019-04-03T08:01:48.103Z,148
2019-04-03T08:02:49.976Z,148
2019-04-03T08:03:52.093Z,156
2019-04-03T08:04:51.741Z,160
2019-04-03T08:05:55.443Z,168
2019-04-03T08:06:52.892Z,180
2019-04-03T08:07:53.476Z,184
2019-04-03T08:09:06.503Z,184
2019-04-03T08:09:57.728Z,180
2019-04-03T08:10:57.172Z,168
2019-04-03T08:11:57.763Z,160
2019-04-03T08:13:00.134Z,152
2019-04-03T08:14:00.145Z,144
2019-04-03T08:15:00.453Z,144
2019-04-03T08:16:01.023Z,140
2019-04-03T08:17:01.594Z,140
2019-04-03T08:18:02.173Z,148
2019-04-03T08:19:02.858Z,156
2019-04-03T08:20:03.310Z,168
2019-04-03T08:21:03.880Z,176
2019-04-03T08:22:04.452Z,168
2019-04-03T08:23:05.853Z,156
2019-04-03T08:24:08.085Z,140
2019-04-03T08:25:10.605Z,132
2019-04-03T08:26:11.443Z,120
2019-04-03T08:27:09.321Z,120
2019-04-03T08:28:09.874Z,116
2019-04-03T08:29:10.445Z,112
2019-04-03T08:30:11.341Z,116
2019-04-03T08:31:12.134Z,116
2019-04-03T08:32:13.731Z,124
2019-04-03T08:33:17.432Z,132
2019-04-03T08:34:18.091Z,140
2019-04-03T08:35:22.091Z,152
2019-04-03T08:36:24.921Z,156
2019-04-03T08:37:29.714Z,156
2019-04-03T08:38:21.679Z,160
2019-04-03T08:39:22.620Z,168
2019-04-03T08:40:23.132Z,176
2019-04-03T08:41:24.912Z,188
2019-04-03T08:42:26.270Z,196
2019-04-03T08:43:26.832Z,204
2019-04-03T08:44:27.401Z,204
2019-04-03T08:45:28.651Z,208
2019-04-03T08:46:28.602Z,212
2019-04-03T08:47:29.119Z,216
2019-04-03T08:48:29.689Z,232
2019-04-03T08:49:30.493Z,244
2019-04-03T08:50:30.840Z,252
2019-04-03T08:51:33.323Z,260
2019-04-03T08:52:32.093Z,260
2019-04-03T08:53:32.587Z,256
2019-04-03T08:54:33.155Z,256
2019-04-03T08:55:33.983Z,256
2019-04-03T08:56:34.509Z,256
2019-04-03T08:57:35.326Z,256
2019-04-03T08:58:35.848Z,248
2019-04-03T08:59:36.397Z,240
2019-04-03T09:00:37.142Z,236
2019-04-03T09:01:38.186Z,236
2019-04-03T09:02:38.424Z,240
2019-04-03T09:03:38.995Z,252
2019-04-03T09:04:39.567Z,276
2019-04-03T09:05:40.137Z,296
2019-04-03T09:06:40.756Z,320
2019-04-03T09:07:41.759Z,336
2019-04-03T09:08:42.312Z,352
2019-04-03T09:09:42.890Z,360
2019-04-03T09:10:43.450Z,372
2019-04-03T09:11:44.031Z,376
2019-04-03T09:12:44.604Z,372
2019-04-03T09:13:45.240Z,376
2019-04-03T09:14:45.774Z,388
2019-04-03T09:15:46.343Z,384
2019-04-03T09:16:47.031Z,368
2019-04-03T09:17:47.538Z,360
2019-04-03T09:18:48.112Z,348
2019-04-03T09:19:48.698Z,336
2019-04-03T09:20:49.283Z,316
2019-04-03T09:21:51.088Z,308
2019-04-03T09:22:53.635Z,300
2019-04-03T09:23:52.983Z,308
2019-04-03T09:24:53.553Z,320
2019-04-03T09:25:54.125Z,324
2019-04-03T09:26:54.697Z,332
2019-04-03T09:27:55.288Z,340
2019-04-03T09:28:56.051Z,344
2019-04-03T09:29:56.445Z,340
2019-04-03T09:30:57.017Z,340
2019-04-03T09:31:57.589Z,336
2019-04-03T09:32:59.881Z,340
2019-04-03T09:33:59.899Z,356
2019-04-03T09:35:01.307Z,368
2019-04-03T09:36:04.355Z,384
2019-04-03T09:37:05.824Z,400
2019-04-03T09:38:05.385Z,412
2019-04-03T09:39:06.661Z,428
2019-04-03T09:40:07.289Z,444
2019-04-03T09:41:07.803Z,464
2019-04-03T09:42:08.374Z,488
2019-04-03T09:43:08.946Z,500
2019-04-03T09:44:09.529Z,504
2019-04-03T09:45:10.376Z,508
2019-04-03T09:46:11.298Z,516
2019-04-03T09:47:11.749Z,528
2019-04-03T09:48:12.798Z,532
2019-04-03T09:49:13.325Z,548
2019-04-03T09:50:14.724Z,572
2019-04-03T09:51:17.603Z,580
2019-04-03T09:52:17.210Z,596
2019-04-03T09:53:17.588Z,596
2019-04-03T09:54:18.160Z,580
2019-04-03T09:55:18.766Z,568
2019-04-03T09:56:19.304Z,552
2019-04-03T09:57:19.929Z,540
2019-04-03T09:58:20.448Z,524
2019-04-03T09:59:21.022Z,516
2019-04-03T10:00:21.640Z,508
2019-04-03T10:01:22.165Z,496
2019-04-03T10:02:22.736Z,480
2019-04-03T10:03:23.934Z,468
2019-04-03T10:04:26.075Z,452
2019-04-03T10:05:28.347Z,428
2019-04-03T10:06:26.634Z,428
2019-04-03T10:07:27.210Z,436
2019-04-03T10:08:27.793Z,432
2019-04-03T10:09:28.376Z,424
2019-04-03T10:10:28.948Z,412
2019-04-03T10:11:29.523Z,400
2019-04-03T10:12:32.195Z,388
2019-04-03T10:13:31.659Z,376
2019-04-03T10:14:32.239Z,360
2019-04-03T10:15:32.817Z,360
2019-04-03T10:16:35.635Z,360
2019-04-03T10:17:36.645Z,360
2019-04-03T10:18:36.521Z,368
2019-04-03T10:19:37.093Z,388
2019-04-03T10:20:37.729Z,416
2019-04-03T10:21:38.520Z,436
2019-04-03T10:22:39.057Z,440
2019-04-03T10:23:39.886Z,444
2019-04-03T10:24:40.397Z,456
2019-04-03T10:25:40.975Z,476
2019-04-03T10:26:41.631Z,488
2019-04-03T10:27:43.545Z,500
2019-04-03T10:28:46.886Z,500
2019-04-03T10:29:45.528Z,492
2019-04-03T10:30:46.263Z,472
2019-04-03T10:31:46.754Z,460
2019-04-03T10:32:47.325Z,448
2019-04-03T10:33:47.899Z,436
2019-04-03T10:34:48.472Z,416
2019-04-03T10:35:49.042Z,400
2019-04-03T10:36:49.614Z,396
2019-04-03T10:37:50.184Z,404
2019-04-03T10:38:50.756Z,416
2019-04-03T10:39:53.073Z,432
2019-04-03T10:40:55.376Z,436
2019-04-03T10:41:55.061Z,448
2019-04-03T10:42:55.583Z,452
2019-04-03T10:43:56.156Z,448
2019-04-03T10:44:56.751Z,444
2019-04-03T10:45:57.404Z,432
2019-04-03T10:46:57.913Z,416
2019-04-03T10:47:58.488Z,412
2019-04-03T10:49:00.483Z,424
2019-04-03T10:50:02.642Z,428
2019-04-03T10:51:02.192Z,424
2019-04-03T10:52:02.765Z,416
2019-04-03T10:53:03.352Z,432
2019-04-03T10:54:04.440Z,444
2019-04-03T10:55:04.798Z,448
2019-04-03T10:56:05.419Z,432
2019-04-03T10:57:05.925Z,404
2019-04-03T10:58:07.128Z,388
2019-04-03T10:59:12.175Z,376
2019-04-03T11:00:08.749Z,352
2019-04-03T11:01:09.253Z,352
2019-04-03T11:02:09.833Z,368
2019-04-03T11:03:10.609Z,396
2019-04-03T11:04:11.368Z,412
2019-04-03T11:05:12.032Z,452
2019-04-03T11:06:12.515Z,484
2019-04-03T11:07:13.353Z,504
2019-04-03T11:08:13.858Z,492
2019-04-03T11:09:14.466Z,468
2019-04-03T11:10:15.013Z,456
2019-04-03T11:11:15.950Z,480
2019-04-03T11:12:16.167Z,504
2019-04-03T11:13:16.738Z,524
2019-04-03T11:14:17.309Z,536
2019-04-03T11:15:18.175Z,536
2019-04-03T11:16:18.694Z,524
2019-04-03T11:17:19.266Z,524
2019-04-03T11:18:21.117Z,520
2019-04-03T11:19:20.417Z,512
2019-04-03T11:20:21.002Z,512
2019-04-03T11:21:21.585Z,524
2019-04-03T11:22:22.294Z,548
2019-04-03T11:23:36.586Z,560
2019-04-03T11:24:24.540Z,564
2019-04-03T11:25:25.158Z,572
2019-04-03T11:26:26.039Z,576
2019-04-03T11:27:40.879Z,584
2019-04-03T11:28:28.416Z,580
2019-04-03T11:29:29.370Z,564
2019-04-03T11:30:29.888Z,552
2019-04-03T11:31:33.543Z,544
2019-04-03T11:32:32.026Z,536
2019-04-03T11:33:32.600Z,548
2019-04-03T11:34:33.250Z,556
2019-04-03T11:35:33.947Z,568
2019-04-03T11:36:34.795Z,560
2019-04-03T11:37:35.298Z,560
2019-04-03T11:38:35.872Z,564
2019-04-03T11:39:37.499Z,560
2019-04-03T11:40:38.014Z,516
2019-04-03T11:41:38.585Z,488
2019-04-03T11:42:39.157Z,484
2019-04-03T11:43:39.785Z,484
2019-04-03T11:44:40.347Z,492
2019-04-03T11:45:40.875Z,488
2019-04-03T11:46:41.446Z,496
2019-04-03T11:47:43.235Z,492
2019-04-03T11:48:43.929Z,480
2019-04-03T11:49:44.516Z,464
2019-04-03T11:50:45.305Z,460
2019-04-03T11:51:45.818Z,468
2019-04-03T11:52:46.576Z,492
2019-04-03T11:53:46.975Z,488
2019-04-03T11:54:47.547Z,468
2019-04-03T11:55:48.457Z,440
2019-04-03T11:56:49.324Z,448
2019-04-03T11:57:50.013Z,488
2019-04-03T11:58:52.127Z,548
2019-04-03T11:59:54.468Z,624
2019-04-03T12:00:53.684Z,696
2019-04-03T12:01:54.300Z,732
2019-04-03T12:02:54.831Z,692
2019-04-03T12:03:55.407Z,648
2019-04-03T12:04:55.976Z,628
2019-04-03T12:05:56.554Z,640
2019-04-03T12:06:57.390Z,688
2019-04-03T12:07:57.928Z,736
2019-04-03T12:09:00.943Z,748
2019-04-03T12:09:59.420Z,700
2019-04-03T12:11:00.523Z,640
2019-04-03T12:12:04.658Z,612
2019-04-03T12:13:05.589Z,620
2019-04-03T12:14:06.195Z,652
2019-04-03T12:15:06.692Z,664
2019-04-03T12:16:07.279Z,664
2019-04-03T12:17:07.877Z,644
2019-04-03T12:18:08.577Z,640
2019-04-03T12:19:09.196Z,668
2019-04-03T12:20:10.006Z,676
2019-04-03T12:21:13.652Z,648
2019-04-03T12:22:12.160Z,608
2019-04-03T12:23:12.665Z,608
2019-04-03T12:24:13.236Z,640
2019-04-03T12:25:13.998Z,676
2019-04-03T12:26:14.601Z,664
2019-04-03T12:27:15.342Z,628
2019-04-03T12:28:17.948Z,612
2019-04-03T12:29:18.905Z,616
2019-04-03T12:30:19.386Z,652
2019-04-03T12:31:19.575Z,692
2019-04-03T12:32:20.526Z,708
2019-04-03T12:33:21.740Z,696
2019-04-03T12:34:23.407Z,676
2019-04-03T12:35:22.974Z,624
2019-04-03T12:36:23.549Z,544
2019-04-03T12:37:25.030Z,508
2019-04-03T12:38:25.700Z,484
2019-04-03T12:39:27.870Z,468
2019-04-03T12:40:28.034Z,440
2019-04-03T12:41:28.811Z,384
2019-04-03T12:42:29.324Z,324
2019-04-03T12:43:29.907Z,276
2019-04-03T12:44:30.479Z,268
2019-04-03T12:45:31.425Z,308
2019-04-03T12:46:33.422Z,360
2019-04-03T12:47:33.580Z,380
2019-04-03T12:48:34.369Z,376
2019-04-03T12:49:34.717Z,360
2019-04-03T12:50:35.259Z,348
2019-04-03T12:51:35.867Z,332
2019-04-03T12:52:36.604Z,316
2019-04-03T12:53:37.167Z,292
2019-04-03T12:54:38.049Z,264
2019-04-03T12:55:38.575Z,244
2019-04-03T12:56:39.177Z,260
2019-04-03T12:57:40.308Z,292
2019-04-03T12:58:40.303Z,320
2019-04-03T12:59:40.916Z,336
2019-04-03T13:00:43.358Z,336
2019-04-03T13:01:43.351Z,332
2019-04-03T13:02:43.926Z,332
2019-04-03T13:03:44.497Z,316
2019-04-03T13:04:45.062Z,316
2019-04-03T13:05:48.500Z,320
2019-04-03T13:06:46.664Z,332
2019-04-03T13:07:47.703Z,360
2019-04-03T13:08:48.574Z,376
2019-04-03T13:09:49.145Z,392
2019-04-03T13:10:49.790Z,400
2019-04-03T13:11:50.862Z,400
2019-04-03T13:12:51.432Z,400
2019-04-03T13:13:51.955Z,404
2019-04-03T13:14:52.912Z,404
2019-04-03T13:15:53.581Z,404
2019-04-03T13:16:54.154Z,404
2019-04-03T13:17:54.720Z,396
2019-04-03T13:18:55.351Z,396
2019-04-03T13:19:56.282Z,404
2019-04-03T13:20:57.435Z,412
2019-04-03T13:21:58.142Z,412
2019-04-03T13:22:58.637Z,420
2019-04-03T13:23:59.207Z,424
2019-04-03T13:24:59.779Z,436
2019-04-03T13:26:00.351Z,456
2019-04-03T13:27:01.204Z,480
2019-04-03T13:28:03.925Z,512
2019-04-03T13:29:03.404Z,552
2019-04-03T13:30:03.900Z,584
2019-04-03T13:31:04.474Z,608
2019-04-03T13:32:05.160Z,632
2019-04-03T13:33:07.207Z,640
2019-04-03T13:34:06.704Z,660
2019-04-03T13:35:07.723Z,684
2019-04-03T13:36:08.553Z,712
2019-04-03T13:37:09.098Z,728
2019-04-03T13:38:09.672Z,748
2019-04-03T13:39:10.244Z,768
2019-04-03T13:40:11.250Z,788
2019-04-03T13:41:11.825Z,796
2019-04-03T13:42:13.917Z,784
2019-04-03T13:43:14.066Z,772
2019-04-03T13:44:14.524Z,756
2019-04-03T13:45:15.076Z,736
2019-04-03T13:46:15.653Z,732
2019-04-03T13:47:16.239Z,732
2019-04-03T13:48:16.812Z,740
2019-04-03T13:49:18.590Z,728
2019-04-03T13:50:21.853Z,704
2019-04-03T13:51:20.525Z,688
2019-04-03T13:52:21.190Z,692
2019-04-03T13:53:24.674Z,700
2019-04-03T13:54:25.299Z,716
2019-04-03T13:55:27.876Z,716
2019-04-03T13:56:25.682Z,664
2019-04-03T13:57:26.183Z,600
2019-04-03T13:58:27.982Z,552
2019-04-03T13:59:28.326Z,540
2019-04-03T14:00:32.164Z,528
2019-04-03T14:01:30.466Z,520
2019-04-03T14:02:31.042Z,520
2019-04-03T14:03:31.941Z,516
2019-04-03T14:04:32.491Z,488
2019-04-03T14:05:33.750Z,460
2019-04-03T14:06:36.213Z,456
2019-04-03T14:07:36.217Z,464
2019-04-03T14:08:36.813Z,452
2019-04-03T14:09:37.386Z,432
2019-04-03T14:10:38.341Z,428
2019-04-03T14:11:39.145Z,444
2019-04-03T14:12:44.005Z,440
2019-04-03T14:13:42.556Z,412
2019-04-03T14:14:41.868Z,392
2019-04-03T14:15:42.442Z,388
2019-04-03T14:16:43.014Z,388
2019-04-03T14:17:54.631Z,388
2019-04-03T14:18:45.865Z,384
2019-04-03T14:19:50.587Z,384
2019-04-03T14:20:47.066Z,376
2019-04-03T14:21:47.570Z,360
2019-04-03T14:22:48.147Z,336
2019-04-03T14:23:48.718Z,300